Time;durP1;ratioP1;P1;durP2;ratioP2;P2;SDS_P1;SDS_P2;PMS_P1;PMS_P2;Temp;Humidity;BMP_temperature;BMP_pressure;BME280_temperature;BME280_humidity;BME280_pressure;Samples;Min_cycle;Max_cycle;Signal;HPM_P1;HPM_P2
2021/05/17 00:00:09;;;;;;;10.88;9.27;;;;;;;;;;1474825;40;20817;-79
2021/05/17 00:01:11;;;;;;;13.68;11.07;;;;;;;;;;1482164;40;20413;-79
2021/05/17 00:02:15;;;;;;;15.63;10.40;;;;;;;;;;1486092;40;20408;-79
2021/05/17 00:03:18;;;;;;;10.37;9.13;;;;;;;;;;1486247;40;20468;-78
2021/05/17 00:04:29;;;;;;;14.15;10.68;;;;;;;;;;1485438;40;20764;-78
2021/05/17 00:05:32;;;;;;;14.10;10.63;;;;;;;;;;1484535;40;20398;-79
2021/05/17 00:06:34;;;;;;;13.73;10.75;;;;;;;;;;1483383;40;20403;-79
2021/05/17 00:07:36;;;;;;;13.88;11.32;;;;;;;;;;1482770;40;20412;-79
2021/05/17 00:08:38;;;;;;;13.23;10.43;;;;;;;;;;1482985;40;20442;-77
2021/05/17 00:09:41;;;;;;;12.27;10.32;;;;;;;;;;1473841;40;20419;-79
2021/05/17 00:10:43;;;;;;;13.38;10.32;;;;;;;;;;1469556;40;20405;-79
2021/05/17 00:11:45;;;;;;;11.90;10.70;;;;;;;;;;1473301;40;21081;-79
2021/05/17 00:12:46;;;;;;;12.57;10.68;;;;;;;;;;1473237;40;20459;-79
2021/05/17 00:13:48;;;;;;;13.88;11.10;;;;;;;;;;1469548;40;20429;-79
2021/05/17 00:14:50;;;;;;;12.60;10.65;;;;;;;;;;1478045;40;21230;-78
2021/05/17 00:15:51;;;;;;;14.30;12.90;;;;;;;;;;1477927;40;20645;-79
2021/05/17 00:16:54;;;;;;;12.52;11.23;;;;;;;;;;1479525;40;20942;-79
2021/05/17 00:17:56;;;;;;;12.07;10.77;;;;;;;;;;1482333;40;20444;-79
2021/05/17 00:18:58;;;;;;;15.32;12.40;;;;;;;;;;1482524;40;20411;-79
2021/05/17 00:20:02;;;;;;;15.52;12.38;;;;;;;;;;1480316;40;20468;-79
2021/05/17 00:21:05;;;;;;;13.65;12.25;;;;;;;;;;1482062;40;20396;-79
2021/05/17 00:22:08;;;;;;;15.07;12.35;;;;;;;;;;1480070;40;20405;-79
2021/05/17 00:23:09;;;;;;;14.13;12.63;;;;;;;;;;1480319;40;20809;-79
2021/05/17 00:24:12;;;;;;;15.70;12.48;;;;;;;;;;1477498;40;20446;-79
2021/05/17 00:25:15;;;;;;;13.55;11.70;;;;;;;;;;1473538;40;20779;-79
2021/05/17 00:26:17;;;;;;;15.32;12.55;;;;;;;;;;1476505;40;20414;-79
2021/05/17 00:27:19;;;;;;;14.70;12.13;;;;;;;;;;1482199;40;20549;-79
2021/05/17 00:28:20;;;;;;;13.43;11.95;;;;;;;;;;1481938;40;20416;-79
2021/05/17 00:29:22;;;;;;;15.55;12.68;;;;;;;;;;1481288;40;20425;-79
2021/05/17 00:30:25;;;;;;;14.38;12.50;;;;;;;;;;1482024;40;20765;-79
2021/05/17 00:31:27;;;;;;;13.68;11.75;;;;;;;;;;1482041;40;20409;-79
2021/05/17 00:32:28;;;;;;;15.88;12.75;;;;;;;;;;1479864;40;20848;-78
2021/05/17 00:33:30;;;;;;;13.63;12.15;;;;;;;;;;1473391;40;20423;-78
2021/05/17 00:34:32;;;;;;;16.63;12.93;;;;;;;;;;1473730;40;20410;-79
2021/05/17 00:35:34;;;;;;;13.82;12.10;;;;;;;;;;1479868;40;20424;-79
2021/05/17 00:36:37;;;;;;;13.60;12.05;;;;;;;;;;1480841;40;20738;-79
2021/05/17 00:37:40;;;;;;;14.30;12.75;;;;;;;;;;1477678;40;20413;-79
2021/05/17 00:38:42;;;;;;;14.43;12.65;;;;;;;;;;1478117;40;20807;-79
2021/05/17 00:39:44;;;;;;;15.20;13.45;;;;;;;;;;1473446;40;20400;-79
2021/05/17 00:40:47;;;;;;;15.23;12.35;;;;;;;;;;1476098;40;20402;-78
2021/05/17 00:41:49;;;;;;;14.48;12.18;;;;;;;;;;1479451;40;20816;-78
2021/05/17 00:42:51;;;;;;;14.98;13.40;;;;;;;;;;1481988;40;20699;-79
2021/05/17 00:43:54;;;;;;;14.88;13.38;;;;;;;;;;1477461;40;20424;-78
2021/05/17 00:44:56;;;;;;;13.60;12.27;;;;;;;;;;1477861;40;20398;-78
2021/05/17 00:45:58;;;;;;;14.55;12.38;;;;;;;;;;1477306;40;20426;-78
2021/05/17 00:47:00;;;;;;;15.10;13.18;;;;;;;;;;1478409;40;20472;-78
2021/05/17 00:48:04;;;;;;;16.92;14.18;;;;;;;;;;1482234;40;20408;-78
2021/05/17 00:49:06;;;;;;;15.00;12.23;;;;;;;;;;1478809;40;20398;-78
2021/05/17 00:50:09;;;;;;;14.32;12.77;;;;;;;;;;1474486;40;20440;-78
2021/05/17 00:51:11;;;;;;;14.23;12.68;;;;;;;;;;1478129;40;20814;-79
2021/05/17 00:52:14;;;;;;;13.88;12.23;;;;;;;;;;1474983;40;20479;-78
2021/05/17 00:53:16;;;;;;;13.30;11.10;;;;;;;;;;1474378;40;20399;-79
2021/05/17 00:54:18;;;;;;;13.95;12.48;;;;;;;;;;1475668;40;20422;-79
2021/05/17 00:55:21;;;;;;;13.27;11.85;;;;;;;;;;1478501;40;20441;-79
2021/05/17 00:56:22;;;;;;;14.48;12.10;;;;;;;;;;1479702;40;20478;-79
2021/05/17 00:57:24;;;;;;;12.80;11.57;;;;;;;;;;1474008;40;20431;-79
2021/05/17 00:58:26;;;;;;;12.15;10.85;;;;;;;;;;1478269;40;20428;-79
2021/05/17 00:59:28;;;;;;;13.32;12.02;;;;;;;;;;1482272;40;20416;-78
2021/05/17 01:00:31;;;;;;;13.50;12.07;;;;;;;;;;1482513;40;20513;-78
2021/05/17 01:01:34;;;;;;;12.88;11.52;;;;;;;;;;1483000;40;20392;-78
2021/05/17 01:02:35;;;;;;;12.90;11.60;;;;;;;;;;1477853;40;20924;-79
2021/05/17 01:03:37;;;;;;;15.93;11.75;;;;;;;;;;1477907;40;20930;-78
2021/05/17 01:04:39;;;;;;;14.75;11.43;;;;;;;;;;1482374;40;20408;-78
2021/05/17 01:05:41;;;;;;;12.55;11.25;;;;;;;;;;1481038;40;20900;-78
2021/05/17 01:06:46;;;;;;;12.40;11.23;;;;;;;;;;1481557;40;20393;-79
2021/05/17 01:07:49;;;;;;;12.32;11.13;;;;;;;;;;1473745;40;20416;-78
2021/05/17 01:09:11;;;;;;;12.38;11.13;;;;;;;;;;1474353;40;20416;-79
2021/05/17 01:10:17;;;;;;;11.45;10.25;;;;;;;;;;1482734;40;20400;-79
2021/05/17 01:11:18;;;;;;;15.93;11.23;;;;;;;;;;1479854;40;20805;-78
2021/05/17 01:12:21;;;;;;;11.40;10.30;;;;;;;;;;1478297;40;20897;-78
2021/05/17 01:13:23;;;;;;;10.65;9.60;;;;;;;;;;1473907;40;20415;-78
2021/05/17 01:14:25;;;;;;;12.48;9.25;;;;;;;;;;1473870;40;20505;-78
2021/05/17 01:15:27;;;;;;;9.80;8.80;;;;;;;;;;1474209;40;20452;-78
2021/05/17 01:16:31;;;;;;;10.57;8.52;;;;;;;;;;1477885;40;20430;-78
2021/05/17 01:17:34;;;;;;;11.60;8.68;;;;;;;;;;1473749;40;20444;-79
2021/05/17 01:18:39;;;;;;;10.32;8.90;;;;;;;;;;1474064;40;20404;-78
2021/05/17 01:20:00;;;;;;;10.85;8.00;;;;;;;;;;1481997;40;20424;-79
2021/05/17 01:21:02;;;;;;;12.55;8.43;;;;;;;;;;1481648;40;20416;-79
2021/05/17 01:22:11;;;;;;;9.52;7.63;;;;;;;;;;1480584;40;20390;-78
2021/05/17 01:24:28;;;;;;;9.77;7.85;;;;;;;;;;1475450;40;20383;-79
2021/05/17 01:25:32;;;;;;;8.10;7.20;;;;;;;;;;1472160;40;21211;-78
2021/05/17 01:26:36;;;;;;;8.30;7.50;;;;;;;;;;1474112;40;20393;-78
2021/05/17 01:27:37;;;;;;;7.22;6.57;;;;;;;;;;1477867;40;20481;-78
2021/05/17 01:28:40;;;;;;;7.35;6.65;;;;;;;;;;1477508;40;20511;-78
2021/05/17 01:29:42;;;;;;;8.90;7.05;;;;;;;;;;1478043;40;20465;-78
2021/05/17 01:30:44;;;;;;;7.32;6.28;;;;;;;;;;1477818;40;20417;-78
2021/05/17 01:31:48;;;;;;;9.43;6.97;;;;;;;;;;1481488;40;20690;-78
2021/05/17 01:32:53;;;;;;;9.45;6.82;;;;;;;;;;1474603;40;20482;-79
2021/05/17 01:33:54;;;;;;;7.80;6.25;;;;;;;;;;1473779;40;20411;-78
2021/05/17 01:34:58;;;;;;;7.85;6.80;;;;;;;;;;1479110;40;20598;-78
2021/05/17 01:36:00;;;;;;;9.95;6.97;;;;;;;;;;1479425;40;20807;-78
2021/05/17 01:37:02;;;;;;;9.80;6.70;;;;;;;;;;1475190;40;20792;-78
2021/05/17 01:38:06;;;;;;;7.22;6.20;;;;;;;;;;1478213;40;20461;-78
2021/05/17 01:39:10;;;;;;;9.02;6.30;;;;;;;;;;1477795;40;21343;-78
2021/05/17 01:40:18;;;;;;;8.80;6.28;;;;;;;;;;1478426;40;20414;-78
2021/05/17 01:41:22;;;;;;;8.93;6.53;;;;;;;;;;1475033;40;20408;-78
2021/05/17 01:42:26;;;;;;;7.55;6.82;;;;;;;;;;1470104;40;20488;-78
2021/05/17 01:43:32;;;;;;;7.28;6.38;;;;;;;;;;1474200;40;20464;-78
2021/05/17 01:44:38;;;;;;;9.15;6.13;;;;;;;;;;1481876;40;20393;-78
2021/05/17 01:45:40;;;;;;;8.38;6.15;;;;;;;;;;1482453;40;20437;-79
2021/05/17 01:46:47;;;;;;;8.23;6.65;;;;;;;;;;1478039;40;21111;-78
2021/05/17 01:47:49;;;;;;;10.27;6.78;;;;;;;;;;1478321;40;20414;-78
2021/05/17 01:48:55;;;;;;;6.68;5.72;;;;;;;;;;1479066;40;20429;-78
2021/05/17 01:49:58;;;;;;;8.03;6.60;;;;;;;;;;1478668;40;21206;-78
2021/05/17 01:51:00;;;;;;;10.73;6.97;;;;;;;;;;1481476;40;20912;-78
2021/05/17 01:52:02;;;;;;;7.78;5.85;;;;;;;;;;1475345;40;20551;-78
2021/05/17 01:53:05;;;;;;;7.63;6.03;;;;;;;;;;1473815;40;20461;-78
2021/05/17 01:54:09;;;;;;;7.13;5.65;;;;;;;;;;1478082;40;20450;-78
2021/05/17 01:55:12;;;;;;;8.00;5.93;;;;;;;;;;1478327;40;20720;-78
2021/05/17 01:56:16;;;;;;;10.25;6.53;;;;;;;;;;1475014;40;20794;-78
2021/05/17 01:57:19;;;;;;;8.50;6.53;;;;;;;;;;1473783;40;20501;-78
2021/05/17 01:58:23;;;;;;;10.20;6.07;;;;;;;;;;1477824;40;20441;-78
2021/05/17 01:59:29;;;;;;;7.45;6.60;;;;;;;;;;1477734;40;20488;-78
2021/05/17 02:00:32;;;;;;;9.55;6.50;;;;;;;;;;1473500;40;20427;-78
2021/05/17 02:01:34;;;;;;;13.75;6.43;;;;;;;;;;1473714;40;20408;-78
2021/05/17 02:02:36;;;;;;;9.10;6.20;;;;;;;;;;1469472;40;20679;-78
2021/05/17 02:03:41;;;;;;;9.50;6.57;;;;;;;;;;1466051;40;20414;-79
2021/05/17 02:04:43;;;;;;;8.93;6.88;;;;;;;;;;1472702;40;20412;-79
2021/05/17 02:05:46;;;;;;;13.05;6.70;;;;;;;;;;1475672;40;20427;-78
2021/05/17 02:06:48;;;;;;;9.48;6.03;;;;;;;;;;1474093;40;20423;-78
2021/05/17 02:07:52;;;;;;;10.98;7.45;;;;;;;;;;1478184;40;20776;-78
2021/05/17 02:08:54;;;;;;;8.50;6.47;;;;;;;;;;1481042;40;20444;-78
2021/05/17 02:09:59;;;;;;;7.45;6.75;;;;;;;;;;1477923;40;20426;-78
2021/05/17 02:11:01;;;;;;;7.88;6.60;;;;;;;;;;1477907;40;20426;-78
2021/05/17 02:12:04;;;;;;;8.68;6.28;;;;;;;;;;1473293;40;20408;-78
2021/05/17 02:13:07;;;;;;;6.50;5.15;;;;;;;;;;1474123;40;20427;-78
2021/05/17 02:14:10;;;;;;;7.82;5.65;;;;;;;;;;1482325;40;20514;-78
2021/05/17 02:15:12;;;;;;;7.97;6.32;;;;;;;;;;1477728;40;20696;-78
2021/05/17 02:16:16;;;;;;;6.88;5.50;;;;;;;;;;1473320;40;20403;-78
2021/05/17 02:17:19;;;;;;;9.77;5.57;;;;;;;;;;1473656;40;20700;-78
2021/05/17 02:18:22;;;;;;;5.80;5.00;;;;;;;;;;1478269;40;20503;-78
2021/05/17 02:19:24;;;;;;;6.85;5.20;;;;;;;;;;1482092;40;20858;-79
2021/05/17 02:20:29;;;;;;;11.27;5.70;;;;;;;;;;1476272;40;20414;-78
2021/05/17 02:21:31;;;;;;;7.10;5.60;;;;;;;;;;1475009;40;20553;-78
2021/05/17 02:22:33;;;;;;;6.30;5.18;;;;;;;;;;1474113;40;20527;-78
2021/05/17 02:23:35;;;;;;;6.60;5.75;;;;;;;;;;1469607;40;20799;-79
2021/05/17 02:24:36;;;;;;;7.22;6.05;;;;;;;;;;1473567;40;21157;-79
2021/05/17 02:25:57;;;;;;;7.30;6.57;;;;;;;;;;1478414;40;20508;-79
2021/05/17 02:26:59;;;;;;;8.45;7.05;;;;;;;;;;1474053;40;20420;-78
2021/05/17 02:28:01;;;;;;;7.65;6.57;;;;;;;;;;1476246;40;20424;-78
2021/05/17 02:29:04;;;;;;;7.28;6.57;;;;;;;;;;1482851;40;20436;-78
2021/05/17 02:30:06;;;;;;;10.20;7.40;;;;;;;;;;1484599;40;20481;-78
2021/05/17 02:31:09;;;;;;;10.80;7.05;;;;;;;;;;1485124;40;20777;-78
2021/05/17 02:32:19;;;;;;;10.05;7.72;;;;;;;;;;1483307;40;20408;-78
2021/05/17 02:33:21;;;;;;;8.85;7.97;;;;;;;;;;1481150;40;20386;-78
2021/05/17 02:34:22;;;;;;;9.63;7.45;;;;;;;;;;1483969;40;20643;-77
2021/05/17 02:35:24;;;;;;;8.52;7.57;;;;;;;;;;1478433;40;20457;-77
2021/05/17 02:36:26;;;;;;;8.90;7.93;;;;;;;;;;1474869;40;20408;-78
2021/05/17 02:37:28;;;;;;;8.27;7.35;;;;;;;;;;1479401;40;20437;-78
2021/05/17 02:38:30;;;;;;;8.90;7.88;;;;;;;;;;1479465;40;20415;-78
2021/05/17 02:39:31;;;;;;;10.07;7.28;;;;;;;;;;1479019;40;20382;-78
2021/05/17 02:40:34;;;;;;;8.82;7.38;;;;;;;;;;1473381;40;20670;-79
2021/05/17 02:41:36;;;;;;;7.80;7.10;;;;;;;;;;1477785;40;20429;-78
2021/05/17 02:42:47;;;;;;;8.48;7.15;;;;;;;;;;1477860;40;20417;-78
2021/05/17 02:43:49;;;;;;;8.52;7.22;;;;;;;;;;1482605;40;20381;-78
2021/05/17 02:44:51;;;;;;;9.20;6.95;;;;;;;;;;1481701;40;20420;-78
2021/05/17 02:45:53;;;;;;;8.48;7.10;;;;;;;;;;1482459;40;20416;-79
2021/05/17 02:46:56;;;;;;;7.75;6.47;;;;;;;;;;1481548;40;20855;-78
2021/05/17 02:48:00;;;;;;;10.35;7.18;;;;;;;;;;1482713;40;20413;-78
2021/05/17 02:49:02;;;;;;;7.05;6.35;;;;;;;;;;1478018;40;20776;-78
2021/05/17 02:50:06;;;;;;;7.30;6.28;;;;;;;;;;1479189;40;20802;-78
2021/05/17 02:51:10;;;;;;;6.40;5.80;;;;;;;;;;1478895;40;20784;-78
2021/05/17 02:52:12;;;;;;;8.57;6.65;;;;;;;;;;1480797;40;20493;-79
2021/05/17 02:53:32;;;;;;;10.27;5.60;;;;;;;;;;1482855;40;20412;-79
2021/05/17 02:54:38;;;;;;;8.52;5.90;;;;;;;;;;1482101;40;20399;-78
2021/05/17 02:55:39;;;;;;;6.13;5.60;;;;;;;;;;1482659;40;20397;-79
2021/05/17 02:57:07;;;;;;;6.63;5.45;;;;;;;;;;1473782;40;20432;-79
2021/05/17 02:58:14;;;;;;;6.68;5.65;;;;;;;;;;1479926;40;20399;-78
2021/05/17 02:59:23;;;;;;;5.97;5.40;;;;;;;;;;1481118;40;20404;-79
2021/05/17 03:00:27;;;;;;;7.18;5.38;;;;;;;;;;1478359;40;20402;-79
2021/05/17 03:01:35;;;;;;;8.10;5.95;;;;;;;;;;1473639;40;20400;-78
2021/05/17 03:02:58;;;;;;;8.50;4.85;;;;;;;;;;1469399;40;20881;-79
2021/05/17 03:04:06;;;;;;;7.18;4.82;;;;;;;;;;1479344;40;20404;-79
2021/05/17 03:05:08;;;;;;;6.70;5.10;;;;;;;;;;1475416;40;20862;-79
2021/05/17 03:06:21;;;;;;;5.60;4.93;;;;;;;;;;1476463;40;20402;-79
2021/05/17 03:07:27;;;;;;;9.07;5.32;;;;;;;;;;1482160;40;20841;-79
2021/05/17 03:08:33;;;;;;;8.80;5.60;;;;;;;;;;1482507;40;20504;-79
2021/05/17 03:09:36;;;;;;;10.27;6.13;;;;;;;;;;1481929;40;20997;-78
2021/05/17 03:10:44;;;;;;;6.68;5.20;;;;;;;;;;1482616;40;20435;-79
2021/05/17 03:11:47;;;;;;;6.53;5.60;;;;;;;;;;1480354;40;20397;-79
2021/05/17 03:12:50;;;;;;;6.97;5.85;;;;;;;;;;1477240;40;20397;-79
2021/05/17 03:13:52;;;;;;;6.07;5.47;;;;;;;;;;1477661;40;20418;-79
2021/05/17 03:14:57;;;;;;;9.68;5.97;;;;;;;;;;1477744;40;21031;-79
2021/05/17 03:15:58;;;;;;;11.35;6.03;;;;;;;;;;1473710;40;20408;-78
2021/05/17 03:17:00;;;;;;;7.78;5.75;;;;;;;;;;1477574;40;20426;-79
2021/05/17 03:18:03;;;;;;;8.50;5.65;;;;;;;;;;1482363;40;20404;-79
2021/05/17 03:19:06;;;;;;;7.93;5.72;;;;;;;;;;1477858;40;20414;-79
2021/05/17 03:20:08;;;;;;;10.77;5.93;;;;;;;;;;1475804;40;20446;-79
2021/05/17 03:21:10;;;;;;;6.80;5.30;;;;;;;;;;1481886;40;20417;-79
2021/05/17 03:22:12;;;;;;;9.77;6.25;;;;;;;;;;1471304;40;20493;-79
2021/05/17 03:23:16;;;;;;;7.18;5.40;;;;;;;;;;1469796;40;20470;-78
2021/05/17 03:24:18;;;;;;;8.95;5.97;;;;;;;;;;1481084;40;20800;-79
2021/05/17 03:25:23;;;;;;;10.75;5.88;;;;;;;;;;1477852;40;20469;-79
2021/05/17 03:26:25;;;;;;;8.55;5.78;;;;;;;;;;1474469;40;20884;-79
2021/05/17 03:27:29;;;;;;;7.05;5.55;;;;;;;;;;1473654;40;20693;-79
2021/05/17 03:28:30;;;;;;;6.43;5.72;;;;;;;;;;1473066;40;20428;-79
2021/05/17 03:29:32;;;;;;;7.75;5.80;;;;;;;;;;1475429;40;20407;-79
2021/05/17 03:30:34;;;;;;;6.15;5.55;;;;;;;;;;1469277;40;20418;-79
2021/05/17 03:31:35;;;;;;;7.13;5.50;;;;;;;;;;1469539;40;20434;-79
2021/05/17 03:32:37;;;;;;;8.20;5.60;;;;;;;;;;1475053;40;20714;-79
2021/05/17 03:33:38;;;;;;;7.25;5.97;;;;;;;;;;1469655;40;20417;-79
2021/05/17 03:34:40;;;;;;;8.80;6.22;;;;;;;;;;1473895;40;20416;-80
2021/05/17 03:35:41;;;;;;;9.48;6.28;;;;;;;;;;1475287;40;20485;-79
2021/05/17 03:36:43;;;;;;;7.97;5.43;;;;;;;;;;1476181;40;21281;-79
2021/05/17 03:37:48;;;;;;;7.75;6.18;;;;;;;;;;1473437;40;20527;-79
2021/05/17 03:38:49;;;;;;;9.32;6.43;;;;;;;;;;1473599;40;20777;-79
2021/05/17 03:39:51;;;;;;;7.15;6.35;;;;;;;;;;1478208;40;20445;-79
2021/05/17 03:40:53;;;;;;;8.15;6.25;;;;;;;;;;1472853;40;20472;-79
2021/05/17 03:41:54;;;;;;;8.60;6.30;;;;;;;;;;1469510;40;20405;-78
2021/05/17 03:42:56;;;;;;;5.90;5.40;;;;;;;;;;1473551;40;20412;-79
2021/05/17 03:43:57;;;;;;;8.82;5.53;;;;;;;;;;1473335;40;21048;-78
2021/05/17 03:44:59;;;;;;;6.40;5.80;;;;;;;;;;1469340;40;20445;-79
2021/05/17 03:46:00;;;;;;;5.93;5.40;;;;;;;;;;1473321;40;20538;-79
2021/05/17 03:47:02;;;;;;;7.72;5.90;;;;;;;;;;1477833;40;20486;-79
2021/05/17 03:48:05;;;;;;;6.32;5.70;;;;;;;;;;1478409;40;20399;-79
2021/05/17 03:49:06;;;;;;;6.28;5.68;;;;;;;;;;1476635;40;20553;-79
2021/05/17 03:50:10;;;;;;;6.70;5.83;;;;;;;;;;1477336;40;20524;-79
2021/05/17 03:51:12;;;;;;;7.65;5.50;;;;;;;;;;1473787;40;20419;-79
2021/05/17 03:52:14;;;;;;;7.55;5.93;;;;;;;;;;1479946;40;20425;-79
2021/05/17 03:53:17;;;;;;;6.20;5.60;;;;;;;;;;1482112;40;20413;-79
2021/05/17 03:54:19;;;;;;;6.47;5.72;;;;;;;;;;1482227;40;20476;-79
2021/05/17 03:55:20;;;;;;;6.97;6.03;;;;;;;;;;1482070;40;20409;-79
2021/05/17 03:56:22;;;;;;;6.45;4.97;;;;;;;;;;1479253;40;20418;-79
2021/05/17 03:57:23;;;;;;;7.13;5.15;;;;;;;;;;1478093;40;20466;-79
2021/05/17 03:58:25;;;;;;;5.13;4.63;;;;;;;;;;1482149;40;20457;-79
2021/05/17 03:59:28;;;;;;;6.93;5.03;;;;;;;;;;1477529;40;20552;-79
2021/05/17 04:00:31;;;;;;;4.70;4.22;;;;;;;;;;1474075;40;20877;-79
2021/05/17 04:01:32;;;;;;;6.43;4.50;;;;;;;;;;1476710;40;20477;-79
2021/05/17 04:02:34;;;;;;;4.60;4.20;;;;;;;;;;1469746;40;20420;-79
2021/05/17 04:03:36;;;;;;;5.63;4.15;;;;;;;;;;1469836;40;21113;-79
2021/05/17 04:04:42;;;;;;;6.47;4.22;;;;;;;;;;1477444;40;20425;-79
2021/05/17 04:06:37;;;;;;;5.95;4.55;;;;;;;;;;1463272;40;20409;-79
2021/05/17 04:07:22;;;;;;;7.05;3.53;;;;;;;;;;1466435;40;20429;-78
2021/05/17 04:13:58;;;;;;;5.28;3.17;;;;;;;;;;1479857;40;20435;-79
2021/05/17 04:14:59;;;;;;;5.25;3.42;;;;;;;;;;1482402;40;20407;-79
2021/05/17 04:16:01;;;;;;;4.53;3.97;;;;;;;;;;1482059;40;20423;-80
2021/05/17 04:17:03;;;;;;;5.38;3.35;;;;;;;;;;1481537;40;20671;-79
2021/05/17 04:18:05;;;;;;;6.35;3.75;;;;;;;;;;1477642;40;20475;-79
2021/05/17 04:19:07;;;;;;;4.70;3.33;;;;;;;;;;1477879;40;20429;-79
2021/05/17 04:20:09;;;;;;;4.32;3.47;;;;;;;;;;1480273;40;20408;-79
2021/05/17 04:21:14;;;;;;;3.60;3.25;;;;;;;;;;1482515;40;20396;-79
2021/05/17 04:22:16;;;;;;;5.97;3.20;;;;;;;;;;1480070;40;20735;-79
2021/05/17 04:23:22;;;;;;;5.87;3.53;;;;;;;;;;1478730;40;20853;-79
2021/05/17 04:24:24;;;;;;;6.55;4.15;;;;;;;;;;1478576;40;20406;-79
2021/05/17 04:25:25;;;;;;;5.80;3.72;;;;;;;;;;1481050;40;20538;-79
2021/05/17 04:26:27;;;;;;;5.00;3.40;;;;;;;;;;1476827;40;20984;-79
2021/05/17 04:27:29;;;;;;;4.20;3.47;;;;;;;;;;1478274;40;20426;-78
2021/05/17 04:28:32;;;;;;;8.15;3.83;;;;;;;;;;1473557;40;20498;-79
2021/05/17 04:29:34;;;;;;;5.82;3.70;;;;;;;;;;1474548;40;20782;-78
2021/05/17 04:30:36;;;;;;;7.15;3.72;;;;;;;;;;1482714;40;20790;-79
2021/05/17 04:31:37;;;;;;;7.28;3.65;;;;;;;;;;1478057;40;20406;-79
2021/05/17 04:32:39;;;;;;;5.97;3.65;;;;;;;;;;1475308;40;20431;-79
2021/05/17 04:33:41;;;;;;;6.15;3.13;;;;;;;;;;1478648;40;20837;-79
2021/05/17 04:34:42;;;;;;;7.25;3.47;;;;;;;;;;1478760;40;20426;-79
2021/05/17 04:35:44;;;;;;;5.72;3.72;;;;;;;;;;1475349;40;20414;-80
2021/05/17 04:36:45;;;;;;;4.78;3.17;;;;;;;;;;1476566;40;20424;-79
2021/05/17 04:37:47;;;;;;;7.15;3.90;;;;;;;;;;1478549;40;20756;-79
2021/05/17 04:38:49;;;;;;;9.55;4.15;;;;;;;;;;1480005;40;20808;-79
2021/05/17 04:39:51;;;;;;;5.90;3.45;;;;;;;;;;1469331;40;20648;-79
2021/05/17 04:40:52;;;;;;;7.70;3.90;;;;;;;;;;1469665;40;20410;-78
2021/05/17 04:41:54;;;;;;;11.95;4.45;;;;;;;;;;1478495;40;20425;-78
2021/05/17 04:42:56;;;;;;;10.98;5.07;;;;;;;;;;1478585;40;20417;-78
2021/05/17 04:43:57;;;;;;;12.45;5.60;;;;;;;;;;1473841;40;20849;-79
2021/05/17 04:44:59;;;;;;;10.68;4.93;;;;;;;;;;1469999;40;21217;-78
2021/05/17 04:46:00;;;;;;;9.75;5.00;;;;;;;;;;1474237;40;20486;-79
2021/05/17 04:47:02;;;;;;;12.27;5.22;;;;;;;;;;1478123;40;20441;-78
2021/05/17 04:48:05;;;;;;;9.90;4.45;;;;;;;;;;1478734;40;20734;-78
2021/05/17 04:49:07;;;;;;;10.48;5.00;;;;;;;;;;1482816;40;20444;-79
2021/05/17 04:50:09;;;;;;;12.73;4.82;;;;;;;;;;1476544;40;20449;-79
2021/05/17 04:51:11;;;;;;;9.00;5.35;;;;;;;;;;1476647;40;20822;-78
2021/05/17 04:52:12;;;;;;;14.93;8.32;;;;;;;;;;1480198;40;20780;-78
2021/05/17 04:53:14;;;;;;;9.05;5.22;;;;;;;;;;1478358;40;20450;-78
2021/05/17 04:54:16;;;;;;;12.25;5.95;;;;;;;;;;1478386;40;20406;-78
2021/05/17 04:55:17;;;;;;;12.27;6.93;;;;;;;;;;1478789;40;20405;-78
2021/05/17 04:56:19;;;;;;;8.98;5.70;;;;;;;;;;1481231;40;20470;-77
2021/05/17 04:57:21;;;;;;;11.95;5.65;;;;;;;;;;1483215;40;20468;-79
2021/05/17 04:58:35;;;;;;;11.77;6.30;;;;;;;;;;1480541;40;20533;-79
2021/05/17 04:59:37;;;;;;;13.85;5.53;;;;;;;;;;1481753;40;20679;-78
2021/05/17 05:00:39;;;;;;;10.05;5.63;;;;;;;;;;1486120;40;20413;-79
2021/05/17 05:01:40;;;;;;;16.58;5.93;;;;;;;;;;1486081;40;20468;-78
2021/05/17 05:02:42;;;;;;;11.38;6.25;;;;;;;;;;1481588;40;20425;-79
2021/05/17 05:03:44;;;;;;;13.23;6.22;;;;;;;;;;1476585;40;20480;-78
2021/05/17 05:04:45;;;;;;;12.75;6.88;;;;;;;;;;1477774;40;20843;-79
2021/05/17 05:05:47;;;;;;;13.15;6.30;;;;;;;;;;1481190;40;20429;-79
2021/05/17 05:06:48;;;;;;;14.30;7.70;;;;;;;;;;1482779;40;20432;-78
2021/05/17 05:07:50;;;;;;;14.18;6.55;;;;;;;;;;1473689;40;21093;-79
2021/05/17 05:08:51;;;;;;;13.90;7.60;;;;;;;;;;1474342;40;20408;-79
2021/05/17 05:09:53;;;;;;;12.85;7.60;;;;;;;;;;1478020;40;20429;-79
2021/05/17 05:10:55;;;;;;;12.00;7.23;;;;;;;;;;1474209;40;20468;-79
2021/05/17 05:11:57;;;;;;;14.52;7.15;;;;;;;;;;1473829;40;20543;-79
2021/05/17 05:13:04;;;;;;;16.42;7.53;;;;;;;;;;1478229;40;20414;-79
2021/05/17 05:14:06;;;;;;;15.98;6.93;;;;;;;;;;1482419;40;20416;-79
2021/05/17 05:15:08;;;;;;;12.48;7.25;;;;;;;;;;1478002;40;20402;-79
2021/05/17 05:16:09;;;;;;;13.93;6.57;;;;;;;;;;1477197;40;20406;-79
2021/05/17 05:17:11;;;;;;;9.93;6.35;;;;;;;;;;1477931;40;20421;-79
2021/05/17 05:18:12;;;;;;;13.50;7.10;;;;;;;;;;1474011;40;20839;-79
2021/05/17 05:19:14;;;;;;;14.05;6.88;;;;;;;;;;1477176;40;20442;-79
2021/05/17 05:20:16;;;;;;;12.75;7.00;;;;;;;;;;1473545;40;21106;-78
2021/05/17 05:21:18;;;;;;;13.85;6.47;;;;;;;;;;1474116;40;20406;-79
2021/05/17 05:22:20;;;;;;;11.68;6.40;;;;;;;;;;1481250;40;20408;-79
2021/05/17 05:23:22;;;;;;;10.68;5.97;;;;;;;;;;1483018;40;20712;-79
2021/05/17 05:24:24;;;;;;;15.35;6.63;;;;;;;;;;1482903;40;20428;-79
2021/05/17 05:25:29;;;;;;;12.43;6.25;;;;;;;;;;1478448;40;20535;-78
2021/05/17 05:27:43;;;;;;;11.15;6.32;;;;;;;;;;1474715;40;20431;-78
2021/05/17 05:29:02;;;;;;;14.50;6.47;;;;;;;;;;1476188;40;20458;-79
2021/05/17 05:32:23;;;;;;;8.52;5.78;;;;;;;;;;1481848;40;20665;-79
2021/05/17 05:33:24;;;;;;;10.20;6.25;;;;;;;;;;1478533;40;20391;-79
2021/05/17 05:34:27;;;;;;;12.88;6.10;;;;;;;;;;1473904;40;20451;-78
2021/05/17 05:35:29;;;;;;;12.93;5.68;;;;;;;;;;1475935;40;20401;-78
2021/05/17 05:36:31;;;;;;;13.82;5.80;;;;;;;;;;1478614;40;20406;-79
2021/05/17 05:37:32;;;;;;;9.85;5.82;;;;;;;;;;1481399;40;20432;-78
2021/05/17 05:38:34;;;;;;;13.07;5.90;;;;;;;;;;1482783;40;20448;-79
2021/05/17 05:39:36;;;;;;;12.27;5.80;;;;;;;;;;1477709;40;21312;-78
2021/05/17 05:40:38;;;;;;;11.63;5.93;;;;;;;;;;1476585;40;20445;-79
2021/05/17 05:41:39;;;;;;;12.77;6.15;;;;;;;;;;1478522;40;20418;-79
2021/05/17 05:42:41;;;;;;;14.27;6.05;;;;;;;;;;1473594;40;20415;-79
2021/05/17 05:43:42;;;;;;;10.32;4.93;;;;;;;;;;1469788;40;20818;-79
2021/05/17 05:44:48;;;;;;;10.13;5.07;;;;;;;;;;1473789;40;20736;-78
2021/05/17 05:45:51;;;;;;;13.77;5.82;;;;;;;;;;1477996;40;20410;-79
2021/05/17 05:46:52;;;;;;;8.93;5.65;;;;;;;;;;1482721;40;20423;-78
2021/05/17 05:47:54;;;;;;;13.50;5.13;;;;;;;;;;1477896;40;20441;-79
2021/05/17 05:48:57;;;;;;;12.50;5.47;;;;;;;;;;1473889;40;20419;-79
2021/05/17 05:49:59;;;;;;;11.57;5.43;;;;;;;;;;1477145;40;20426;-79
2021/05/17 05:51:00;;;;;;;13.10;5.05;;;;;;;;;;1477010;40;21051;-79
2021/05/17 05:52:02;;;;;;;11.18;5.50;;;;;;;;;;1476682;40;21152;-78
2021/05/17 05:53:04;;;;;;;10.45;5.20;;;;;;;;;;1477860;40;20425;-78
2021/05/17 05:54:06;;;;;;;12.52;5.60;;;;;;;;;;1481250;40;20901;-79
2021/05/17 05:55:08;;;;;;;15.48;5.50;;;;;;;;;;1482449;40;20806;-78
2021/05/17 05:56:11;;;;;;;12.30;5.57;;;;;;;;;;1480530;40;20425;-79
2021/05/17 05:57:15;;;;;;;12.32;6.22;;;;;;;;;;1478393;40;20406;-79
2021/05/17 05:58:16;;;;;;;10.70;5.13;;;;;;;;;;1481516;40;20923;-79
2021/05/17 05:59:18;;;;;;;14.55;5.50;;;;;;;;;;1482282;40;20421;-78
2021/05/17 06:00:20;;;;;;;13.70;6.10;;;;;;;;;;1477898;40;20410;-79
2021/05/17 06:01:22;;;;;;;9.95;5.32;;;;;;;;;;1474055;40;20452;-78
2021/05/17 06:02:23;;;;;;;12.40;6.20;;;;;;;;;;1477326;40;20457;-79
2021/05/17 06:03:25;;;;;;;12.55;5.22;;;;;;;;;;1482598;40;20444;-78
2021/05/17 06:04:26;;;;;;;12.98;5.38;;;;;;;;;;1482000;40;20412;-79
2021/05/17 06:05:28;;;;;;;13.80;5.63;;;;;;;;;;1475921;40;20407;-79
2021/05/17 06:06:30;;;;;;;14.00;5.63;;;;;;;;;;1476931;40;20758;-79
2021/05/17 06:07:32;;;;;;;8.63;5.32;;;;;;;;;;1474532;40;20435;-79
2021/05/17 06:08:43;;;;;;;9.30;5.45;;;;;;;;;;1473527;40;20975;-79
2021/05/17 06:09:45;;;;;;;13.32;5.57;;;;;;;;;;1473674;40;20451;-79
2021/05/17 06:10:47;;;;;;;8.77;5.10;;;;;;;;;;1473863;40;20423;-79
2021/05/17 06:11:49;;;;;;;13.27;6.00;;;;;;;;;;1478453;40;20465;-79
2021/05/17 06:12:52;;;;;;;9.65;5.50;;;;;;;;;;1478128;40;20433;-79
2021/05/17 06:13:54;;;;;;;11.23;5.70;;;;;;;;;;1478432;40;21137;-79
2021/05/17 06:15:02;;;;;;;10.52;5.15;;;;;;;;;;1473607;40;20424;-79
2021/05/17 06:16:05;;;;;;;11.70;5.40;;;;;;;;;;1470101;40;20877;-79
2021/05/17 06:17:07;;;;;;;12.40;5.40;;;;;;;;;;1473339;40;20405;-79
2021/05/17 06:18:10;;;;;;;10.60;5.30;;;;;;;;;;1474001;40;20514;-79
2021/05/17 06:19:12;;;;;;;9.88;5.45;;;;;;;;;;1477199;40;20484;-79
2021/05/17 06:20:15;;;;;;;10.25;5.75;;;;;;;;;;1480462;40;20402;-79
2021/05/17 06:21:18;;;;;;;13.80;5.70;;;;;;;;;;1473684;40;20421;-79
2021/05/17 06:22:21;;;;;;;14.40;5.87;;;;;;;;;;1471400;40;21118;-79
2021/05/17 06:23:23;;;;;;;8.73;5.97;;;;;;;;;;1478105;40;20414;-79
2021/05/17 06:24:25;;;;;;;10.20;5.60;;;;;;;;;;1478750;40;20433;-79